PAMC

Mc Grath Airport

Mcgrath, Alaska, USA
METAR PAMC 270653Z AUTO 31006KT 10SM CLR 13/06 A2967 RMK AO2 SLP049 T01280056 TSNO
Observed Flight Rules
May-27 @ 06:53 UTC (an hour ago) Visual Flight Rules
Wind Visibility Clouds
310° at 6 knots 10 miles
  • Clear skies
Temperatures Readings
Current 13°C / 55°F
Dewpoint 6°C / 43°F
Humidity 63%
Altimeter 29.67" Hg
Pressure 1004.9 hPa
Elevation 103
METAR PAMC 270653Z AUTO 31006KT 10SM CLR 13/06 A2967 RMK AO2 SLP049 T01280056 TSNO
Observed Flight Rules
May-27 @ 06:53 UTC
(an hour ago)
VFR
Wind Visibility
310° at 6 knots 10 miles
Clouds
  • Clear skies
Temperature Dewpoint
13°C / 55°F 6°C / 43°F
Humidity Altimeter Pressure
63% 29.67" Hg 1004.9 hPa